Time;durP1;ratioP1;P1;durP2;ratioP2;P2;SDS_P1;SDS_P2;PMS_P1;PMS_P2;Temp;Humidity;BMP_temperature;BMP_pressure;BME280_temperature;BME280_humidity;BME280_pressure;Samples;Min_cycle;Max_cycle;Signal;HPM_P1;HPM_P2
2024/01/24 00:01:35;;;;;;;2.47;0.97;;;;;;;7.51;89.89;96503.59;4941207;29;20199;-85
2024/01/24 00:04:02;;;;;;;1.60;1.23;;;;;;;7.59;89.61;96511.41;4951335;28;20227;-85
2024/01/24 00:06:29;;;;;;;1.70;1.10;;;;;;;7.64;90.27;96516.16;4953011;29;20205;-85
2024/01/24 00:08:59;;;;;;;2.63;1.10;;;;;;;7.61;90.77;96522.34;4950668;29;20251;-86
2024/01/24 00:11:29;;;;;;;1.33;0.80;;;;;;;7.63;91.10;96524.78;4944101;29;20713;-85
2024/01/24 00:14:08;;;;;;;0.90;0.80;;;;;;;7.61;91.78;96526.66;4933526;29;20225;-85
2024/01/24 00:16:41;;;;;;;1.33;0.90;;;;;;;7.65;92.89;96535.72;4933212;29;20213;-85
2024/01/24 00:19:08;;;;;;;0.93;0.73;;;;;;;7.66;94.13;96573.22;4932927;29;20209;-85
2024/01/24 00:21:42;;;;;;;1.47;0.80;;;;;;;7.73;95.09;96597.34;4948867;28;20205;-85
2024/01/24 00:24:16;;;;;;;1.17;0.60;;;;;;;7.75;95.88;96595.47;4939943;28;20247;-86
2024/01/24 00:26:43;;;;;;;0.63;0.63;;;;;;;7.81;96.79;96587.25;4951144;29;20205;-85
2024/01/24 00:29:12;;;;;;;0.60;0.60;;;;;;;7.96;96.59;96592.78;4952491;29;20204;-85
2024/01/24 00:31:39;;;;;;;1.00;0.70;;;;;;;8.04;96.72;96572.41;4952302;29;20225;-85
2024/01/24 00:34:13;;;;;;;0.90;0.70;;;;;;;8.07;96.58;96571.31;4952448;28;20244;-84
2024/01/24 00:36:41;;;;;;;0.93;0.70;;;;;;;8.14;96.40;96564.69;4949970;29;20196;-84
2024/01/24 00:39:10;;;;;;;0.73;0.60;;;;;;;8.24;95.45;96562.94;4933530;29;20205;-85
2024/01/24 00:41:43;;;;;;;0.80;0.60;;;;;;;8.30;94.97;96554.66;4932774;29;20206;-85
2024/01/24 00:44:09;;;;;;;0.47;0.47;;;;;;;8.39;94.95;96564.13;4947997;29;20905;-85
2024/01/24 00:46:38;;;;;;;0.50;0.50;;;;;;;8.43;94.06;96541.56;4951988;29;20216;-84
2024/01/24 00:49:09;;;;;;;2.50;0.87;;;;;;;8.51;93.63;96534.78;4951675;29;20209;-85
2024/01/24 00:51:38;;;;;;;0.53;0.50;;;;;;;8.56;92.47;96521.53;4952818;29;20594;-84
2024/01/24 00:54:06;;;;;;;0.57;0.57;;;;;;;8.68;91.68;96512.69;4951771;29;20216;-85
2024/01/24 00:56:32;;;;;;;1.30;0.70;;;;;;;8.69;91.21;96503.22;4944214;29;20201;-85
2024/01/24 00:58:59;;;;;;;0.40;0.40;;;;;;;8.78;90.54;96490.38;4944117;29;20197;-84
2024/01/24 01:01:26;;;;;;;0.50;0.50;;;;;;;8.85;89.87;96463.16;4951449;29;20201;-83
2024/01/24 01:03:53;;;;;;;0.60;0.60;;;;;;;8.89;89.14;96445.69;4952322;29;20220;-84
2024/01/24 01:06:19;;;;;;;0.77;0.60;;;;;;;8.98;88.72;96432.00;4938327;29;20208;-85
2024/01/24 01:08:46;;;;;;;1.23;0.70;;;;;;;9.04;87.94;96416.00;4932463;29;20205;-84
2024/01/24 01:11:13;;;;;;;0.40;0.40;;;;;;;9.09;86.93;96402.69;4931883;29;20571;-85
2024/01/24 01:13:40;;;;;;;1.67;0.53;;;;;;;9.18;86.15;96376.94;4932476;29;20212;-84
2024/01/24 01:16:06;;;;;;;0.67;0.60;;;;;;;9.26;85.95;96368.47;4933909;28;20712;-84
2024/01/24 01:18:33;;;;;;;1.13;0.63;;;;;;;9.31;85.00;96338.81;4932144;29;20208;-84
2024/01/24 01:20:59;;;;;;;0.67;0.57;;;;;;;9.37;84.04;96313.47;4932701;29;20205;-84
2024/01/24 01:23:26;;;;;;;1.10;0.70;;;;;;;9.41;83.84;96300.19;4931550;29;20205;-85
2024/01/24 01:25:55;;;;;;;0.50;0.50;;;;;;;9.48;83.04;96297.78;4931888;29;20218;-85
2024/01/24 01:28:23;;;;;;;0.50;0.50;;;;;;;9.54;82.76;96290.28;4932182;29;20202;-87
2024/01/24 01:30:49;;;;;;;0.67;0.50;;;;;;;9.61;81.88;96262.22;4935351;29;20697;-87
2024/01/24 01:33:16;;;;;;;1.80;0.80;;;;;;;9.70;81.79;96266.41;4935181;29;20225;-88
2024/01/24 01:35:42;;;;;;;0.40;0.40;;;;;;;9.72;81.35;96256.78;4935897;29;20225;-85
2024/01/24 01:38:09;;;;;;;0.40;0.40;;;;;;;9.77;81.23;96259.72;4935396;29;20198;-85
2024/01/24 01:40:38;;;;;;;0.50;0.50;;;;;;;9.80;80.11;96238.03;4935510;29;20217;-84
2024/01/24 01:43:09;;;;;;;0.50;0.50;;;;;;;9.87;79.98;96208.94;4935072;29;20695;-85
2024/01/24 01:45:37;;;;;;;0.77;0.60;;;;;;;9.89;79.85;96206.22;4941259;29;20226;-84
2024/01/24 01:48:05;;;;;;;0.40;0.40;;;;;;;9.96;79.48;96186.63;4935234;29;20209;-85
2024/01/24 01:50:33;;;;;;;0.83;0.60;;;;;;;9.98;79.20;96180.38;4935428;29;20511;-85
2024/01/24 01:53:01;;;;;;;0.87;0.50;;;;;;;10.02;79.08;96175.69;4935712;29;20222;-85
2024/01/24 01:55:28;;;;;;;0.50;0.50;;;;;;;10.10;78.45;96160.28;4938335;29;20224;-85
2024/01/24 01:57:56;;;;;;;0.70;0.50;;;;;;;10.15;78.56;96154.66;4937867;29;20205;-84
2024/01/24 02:00:22;;;;;;;0.83;0.60;;;;;;;10.23;78.26;96144.38;4935061;29;20217;-84
2024/01/24 02:02:50;;;;;;;1.67;0.50;;;;;;;10.23;77.91;96132.31;4940741;29;20573;-85
2024/01/24 02:05:18;;;;;;;0.67;0.67;;;;;;;10.28;78.09;96135.22;4953590;28;20879;-85
2024/01/24 02:07:44;;;;;;;0.73;0.60;;;;;;;10.36;77.81;96134.44;4953411;29;20204;-85
2024/01/24 02:10:11;;;;;;;0.87;0.50;;;;;;;10.40;77.61;96117.69;4953911;29;20582;-85
2024/01/24 02:12:38;;;;;;;0.50;0.50;;;;;;;10.41;77.93;96121.06;4948790;28;20590;-84
2024/01/24 02:15:08;;;;;;;0.80;0.50;;;;;;;10.44;77.52;96111.25;4934321;29;20735;-84
2024/01/24 02:17:35;;;;;;;0.60;0.47;;;;;;;10.49;77.70;96110.75;4939327;29;20236;-85
2024/01/24 02:20:09;;;;;;;0.50;0.50;;;;;;;10.51;77.58;96119.13;4953538;29;20197;-85
2024/01/24 02:22:36;;;;;;;0.83;0.60;;;;;;;10.52;77.68;96107.88;4953386;29;20212;-84
2024/01/24 02:25:07;;;;;;;1.47;0.70;;;;;;;10.54;77.72;96096.44;4948280;29;20221;-85
2024/01/24 02:27:34;;;;;;;0.50;0.50;;;;;;;10.57;77.86;96106.41;4934227;29;20260;-84
2024/01/24 02:30:00;;;;;;;0.50;0.50;;;;;;;10.60;77.65;96100.91;4934562;29;20205;-87
2024/01/24 02:32:29;;;;;;;1.87;0.53;;;;;;;10.62;77.52;96091.25;4933880;29;20252;-84
2024/01/24 02:34:56;;;;;;;0.70;0.63;;;;;;;10.63;77.66;96086.91;4935896;29;20222;-85
2024/01/24 02:37:23;;;;;;;1.10;0.70;;;;;;;10.67;77.23;96088.19;4952445;29;20209;-84
2024/01/24 02:39:49;;;;;;;0.97;0.53;;;;;;;10.63;77.58;96074.84;4953882;28;20578;-85
2024/01/24 02:42:17;;;;;;;0.57;0.50;;;;;;;10.70;77.64;96070.66;4936572;29;20205;-85
2024/01/24 02:44:43;;;;;;;0.70;0.70;;;;;;;10.69;77.58;96073.41;4938453;29;20231;-85
2024/01/24 02:47:10;;;;;;;0.50;0.50;;;;;;;10.78;77.67;96076.72;4943978;29;20233;-84
2024/01/24 02:49:36;;;;;;;1.80;0.67;;;;;;;10.79;77.73;96073.19;4936669;29;20648;-85
2024/01/24 02:52:03;;;;;;;1.00;0.47;;;;;;;10.76;77.80;96078.69;4944489;29;20229;-85
2024/01/24 02:54:30;;;;;;;0.67;0.60;;;;;;;10.78;77.57;96063.84;4937487;29;20218;-85
2024/01/24 02:56:56;;;;;;;1.83;0.50;;;;;;;10.80;77.57;96054.19;4949525;29;20224;-85
2024/01/24 02:59:24;;;;;;;1.57;0.67;;;;;;;10.86;77.54;96045.81;4953019;29;20211;-85
2024/01/24 03:01:51;;;;;;;0.40;0.40;;;;;;;10.87;77.28;96044.84;4951561;29;20739;-86
2024/01/24 03:04:17;;;;;;;1.00;0.70;;;;;;;10.81;77.45;96038.56;4934480;29;20848;-85
2024/01/24 03:06:44;;;;;;;0.40;0.40;;;;;;;10.87;77.54;96039.69;4952731;29;20209;-85
2024/01/24 03:09:10;;;;;;;0.43;0.43;;;;;;;10.88;77.52;96031.78;4952784;28;20220;-85
2024/01/24 03:11:38;;;;;;;0.67;0.50;;;;;;;10.94;77.48;96038.06;4952610;29;20215;-84
2024/01/24 03:14:04;;;;;;;1.27;0.60;;;;;;;10.92;77.70;96032.28;4952632;28;20228;-85
2024/01/24 03:16:34;;;;;;;0.63;0.53;;;;;;;10.90;77.84;96035.00;4961128;29;20209;-84
2024/01/24 03:19:00;;;;;;;0.50;0.50;;;;;;;10.87;78.15;96040.50;4962937;29;20205;-84
2024/01/24 03:21:27;;;;;;;1.07;0.60;;;;;;;10.94;78.32;96059.47;4959540;29;20201;-85
2024/01/24 03:23:54;;;;;;;0.50;0.50;;;;;;;10.98;78.25;96053.00;4947814;29;20229;-85
2024/01/24 03:26:20;;;;;;;0.77;0.40;;;;;;;11.02;78.30;96049.13;4966976;29;20211;-85
2024/01/24 03:28:47;;;;;;;0.60;0.60;;;;;;;11.08;78.07;96034.78;4963492;29;20201;-87
2024/01/24 03:31:16;;;;;;;0.53;0.50;;;;;;;11.10;78.03;96032.03;4966122;29;20197;-86
2024/01/24 03:33:44;;;;;;;0.67;0.60;;;;;;;11.16;78.21;96029.56;4953056;29;20230;-85
2024/01/24 03:36:12;;;;;;;0.67;0.60;;;;;;;11.18;77.96;96025.03;4947576;29;20202;-86
2024/01/24 03:38:39;;;;;;;0.57;0.50;;;;;;;11.20;77.78;96010.22;4948696;29;20201;-86
2024/01/24 03:41:05;;;;;;;0.40;0.40;;;;;;;11.26;77.50;96003.59;4947660;29;20220;-85
2024/01/24 03:43:32;;;;;;;0.50;0.50;;;;;;;11.36;77.25;96006.72;4937101;29;20201;-84
2024/01/24 03:45:59;;;;;;;0.40;0.40;;;;;;;11.39;77.22;96008.97;4939207;29;20228;-84
2024/01/24 03:48:26;;;;;;;1.30;0.50;;;;;;;11.43;77.17;96008.47;4946750;29;20196;-84
2024/01/24 03:50:54;;;;;;;0.40;0.40;;;;;;;11.42;77.34;96014.59;4936890;29;20208;-85
2024/01/24 03:53:20;;;;;;;0.93;0.67;;;;;;;11.47;77.30;96011.50;4938776;29;20232;-85
2024/01/24 03:55:46;;;;;;;0.50;0.50;;;;;;;11.52;77.29;96018.75;4943485;29;20239;-85
2024/01/24 03:58:13;;;;;;;0.50;0.50;;;;;;;11.53;77.57;96021.16;4955818;29;20216;-85
2024/01/24 04:00:39;;;;;;;0.30;0.30;;;;;;;11.60;77.47;96026.41;4955382;29;20231;-84
2024/01/24 04:03:06;;;;;;;0.50;0.50;;;;;;;11.58;77.69;96039.47;4954444;29;20204;-84
2024/01/24 04:05:32;;;;;;;0.50;0.50;;;;;;;11.60;77.69;96044.47;4956088;28;20236;-85
2024/01/24 04:08:00;;;;;;;0.60;0.60;;;;;;;11.60;78.17;96055.59;4955172;29;20211;-85
2024/01/24 04:10:29;;;;;;;1.53;0.50;;;;;;;11.67;78.02;96063.44;4954760;29;20197;-85
2024/01/24 04:12:56;;;;;;;0.43;0.43;;;;;;;11.66;78.37;96064.41;4954818;29;20224;-85
2024/01/24 04:15:22;;;;;;;0.63;0.53;;;;;;;11.71;78.20;96062.94;4955269;28;20235;-85
2024/01/24 04:17:49;;;;;;;0.50;0.50;;;;;;;11.74;78.01;96061.78;4946181;29;20237;-84
2024/01/24 04:20:15;;;;;;;0.83;0.60;;;;;;;11.75;78.28;96051.28;4935750;29;20814;-85
2024/01/24 04:22:42;;;;;;;0.50;0.50;;;;;;;11.85;78.24;96039.97;4936622;29;20212;-85
2024/01/24 04:25:12;;;;;;;0.50;0.50;;;;;;;11.84;78.21;96043.53;4945133;29;20225;-85
2024/01/24 04:27:39;;;;;;;0.73;0.60;;;;;;;11.86;78.28;96031.25;4956538;29;20213;-84
2024/01/24 04:30:07;;;;;;;2.70;0.60;;;;;;;11.90;78.18;96040.28;4954967;29;20757;-85
2024/01/24 04:32:34;;;;;;;0.87;0.50;;;;;;;11.96;78.01;96036.97;4955534;29;20228;-85
2024/01/24 04:35:00;;;;;;;0.60;0.50;;;;;;;11.98;78.08;96033.25;4955281;28;20229;-84
2024/01/24 04:37:26;;;;;;;0.53;0.50;;;;;;;12.04;77.97;96031.75;4942905;29;20202;-85
2024/01/24 04:39:53;;;;;;;0.40;0.40;;;;;;;12.11;77.88;96027.50;4937160;29;20198;-84
2024/01/24 04:42:21;;;;;;;0.80;0.40;;;;;;;12.14;77.53;96034.09;4940059;29;20201;-85
2024/01/24 04:44:47;;;;;;;0.57;0.50;;;;;;;12.15;77.21;96026.16;4952449;29;20231;-85
2024/01/24 04:47:14;;;;;;;0.40;0.40;;;;;;;12.15;77.54;96026.16;4954358;29;20201;-85
2024/01/24 04:49:40;;;;;;;0.53;0.53;;;;;;;12.18;77.51;96025.81;4958911;29;20196;-84
2024/01/24 04:52:07;;;;;;;0.60;0.60;;;;;;;12.20;77.72;96038.56;4955051;29;20204;-84
2024/01/24 04:54:34;;;;;;;0.60;0.60;;;;;;;12.22;77.59;96034.03;4955033;29;20654;-84
2024/01/24 04:57:00;;;;;;;0.50;0.50;;;;;;;12.24;77.67;96029.50;4938610;29;20735;-85
2024/01/24 04:59:28;;;;;;;0.40;0.40;;;;;;;12.26;77.72;96022.38;4941293;29;20211;-85
2024/01/24 05:01:55;;;;;;;0.60;0.60;;;;;;;12.26;77.78;96041.25;4946681;28;20212;-84
2024/01/24 05:04:21;;;;;;;0.50;0.50;;;;;;;12.29;77.69;96033.16;4938121;29;20260;-85
2024/01/24 05:06:47;;;;;;;0.50;0.50;;;;;;;12.30;77.30;96026.22;4940252;29;20208;-85
2024/01/24 05:09:15;;;;;;;0.53;0.53;;;;;;;12.36;77.52;96040.97;4940217;29;20201;-85
2024/01/24 05:11:41;;;;;;;0.67;0.50;;;;;;;12.38;77.40;96039.81;4939360;29;20209;-84
2024/01/24 05:14:08;;;;;;;0.60;0.60;;;;;;;12.38;77.05;96032.09;4939860;29;20225;-84
2024/01/24 05:16:41;;;;;;;0.87;0.50;;;;;;;12.39;77.15;96033.69;4938651;29;20205;-85
2024/01/24 05:19:07;;;;;;;0.53;0.50;;;;;;;12.36;77.52;96039.19;4939069;29;20205;-85
2024/01/24 05:21:40;;;;;;;0.60;0.60;;;;;;;12.38;77.30;96036.44;4939239;29;20201;-84
2024/01/24 05:24:06;;;;;;;0.80;0.70;;;;;;;12.41;77.57;96052.41;4937827;29;20232;-85
2024/01/24 05:26:43;;;;;;;0.70;0.53;;;;;;;12.41;77.35;96052.41;4953918;28;20606;-84
2024/01/24 05:29:10;;;;;;;1.33;0.60;;;;;;;12.44;77.23;96046.06;4962767;28;20203;-86
2024/01/24 05:31:38;;;;;;;0.77;0.50;;;;;;;12.39;77.41;96048.38;4956865;28;20204;-86
2024/01/24 05:34:05;;;;;;;0.77;0.60;;;;;;;12.38;77.65;96054.53;4954690;28;20222;-87
2024/01/24 05:36:31;;;;;;;0.50;0.50;;;;;;;12.39;77.68;96062.09;4947781;28;20197;-88
2024/01/24 05:39:00;;;;;;;1.70;0.70;;;;;;;12.41;77.84;96073.06;4945590;28;20212;-85
2024/01/24 05:41:28;;;;;;;0.50;0.50;;;;;;;12.49;77.67;96067.03;4954369;28;20192;-84
2024/01/24 05:43:55;;;;;;;0.97;0.60;;;;;;;12.49;77.65;96064.44;4959513;28;20208;-85
2024/01/24 05:46:22;;;;;;;0.60;0.60;;;;;;;12.49;77.69;96067.03;4948960;28;20197;-85
2024/01/24 05:48:49;;;;;;;0.83;0.70;;;;;;;12.52;78.70;96095.06;4935441;28;20209;-83
2024/01/24 05:51:16;;;;;;;0.80;0.70;;;;;;;12.56;78.33;96093.72;4948566;28;20882;-84
2024/01/24 05:53:43;;;;;;;0.50;0.50;;;;;;;12.53;78.31;96088.91;4947896;29;20474;-85
2024/01/24 05:56:13;;;;;;;0.60;0.60;;;;;;;12.54;78.25;96093.09;4947958;28;20286;-84
2024/01/24 05:58:40;;;;;;;0.80;0.70;;;;;;;12.48;78.50;96091.25;4950665;28;20232;-84
2024/01/24 06:01:14;;;;;;;0.83;0.57;;;;;;;12.48;78.68;96090.44;4949190;29;20209;-84
2024/01/24 06:03:41;;;;;;;0.83;0.60;;;;;;;12.47;78.72;96087.06;4941092;28;20201;-83
2024/01/24 06:06:11;;;;;;;1.37;0.60;;;;;;;12.43;78.88;96086.59;4963601;28;20248;-84
2024/01/24 06:08:38;;;;;;;1.10;0.77;;;;;;;12.44;78.95;96093.38;4961443;28;20204;-84
2024/01/24 06:11:05;;;;;;;0.57;0.57;;;;;;;12.40;78.79;96086.94;4953964;29;20614;-83
2024/01/24 06:13:31;;;;;;;0.90;0.70;;;;;;;12.46;78.84;96093.19;4944956;28;20260;-86
2024/01/24 06:15:58;;;;;;;0.47;0.47;;;;;;;12.46;78.71;96077.69;4942481;28;20239;-84
2024/01/24 06:18:24;;;;;;;0.60;0.60;;;;;;;12.40;78.80;96083.56;4949481;28;20583;-84
2024/01/24 06:20:52;;;;;;;0.50;0.50;;;;;;;12.37;79.03;96086.47;4931882;28;20213;-84
2024/01/24 06:23:20;;;;;;;0.40;0.40;;;;;;;12.38;78.87;96099.22;4947861;28;20632;-85
2024/01/24 06:25:49;;;;;;;0.60;0.60;;;;;;;12.38;79.03;96098.41;4956971;29;20227;-84
2024/01/24 06:28:15;;;;;;;0.87;0.73;;;;;;;12.38;78.61;96086.31;4935844;28;20208;-86
2024/01/24 06:30:41;;;;;;;1.60;0.70;;;;;;;12.43;78.58;96088.38;4952688;28;20236;-85
2024/01/24 06:33:08;;;;;;;0.50;0.50;;;;;;;12.39;78.21;96074.19;4949582;28;20726;-83
2024/01/24 06:35:46;;;;;;;1.07;0.70;;;;;;;12.37;77.94;96076.97;5018710;23;20230;-84
2024/01/24 06:44:31;;;;;;;1.00;0.50;;;;;;;12.39;77.43;96074.19;4923838;29;20700;-87
2024/01/24 06:46:58;;;;;;;0.50;0.50;;;;;;;12.37;77.17;96058.09;4896682;29;20202;-84
2024/01/24 06:49:30;;;;;;;0.53;0.53;;;;;;;12.39;77.32;96077.59;4959784;28;20208;-85
2024/01/24 06:55:30;;;;;;;0.50;0.50;;;;;;;12.38;76.89;96028.69;4930447;28;20228;-84
2024/01/24 06:57:57;;;;;;;0.77;0.60;;;;;;;12.34;76.94;96036.00;4983536;28;20227;-83
2024/01/24 07:00:24;;;;;;;0.57;0.57;;;;;;;12.32;76.91;96022.44;4973883;28;20204;-81
2024/01/24 07:02:50;;;;;;;0.90;0.80;;;;;;;12.31;76.81;96022.66;4975407;28;20284;-83
2024/01/24 07:05:17;;;;;;;0.60;0.60;;;;;;;12.34;76.80;96019.69;4973034;28;20228;-82
2024/01/24 07:07:43;;;;;;;0.90;0.63;;;;;;;12.38;76.61;96020.94;4974655;28;20197;-81
2024/01/24 07:10:13;;;;;;;1.10;0.70;;;;;;;12.35;76.31;96029.03;4964580;28;20219;-84
2024/01/24 07:12:45;;;;;;;0.83;0.83;;;;;;;12.33;76.40;96018.88;4969446;28;20471;-82
2024/01/24 07:15:14;;;;;;;0.60;0.60;;;;;;;12.37;76.40;96043.38;4956393;28;20297;-84
2024/01/24 07:17:40;;;;;;;0.80;0.80;;;;;;;12.35;76.19;96032.44;4975838;28;20206;-83
2024/01/24 07:20:08;;;;;;;0.50;0.50;;;;;;;12.38;76.11;96036.44;4977471;28;20208;-83
2024/01/24 07:22:35;;;;;;;0.60;0.60;;;;;;;12.37;76.15;96030.47;4976699;28;20207;-84
2024/01/24 07:25:04;;;;;;;2.50;2.20;;;;;;;12.40;76.64;96060.31;4977818;28;20231;-85
2024/01/24 07:27:34;;;;;;;0.60;0.60;;;;;;;12.39;76.41;96072.44;4967836;28;20199;-86
2024/01/24 07:30:04;;;;;;;0.70;0.70;;;;;;;12.43;76.26;96081.44;4976914;28;20219;-86
2024/01/24 07:32:30;;;;;;;1.43;0.60;;;;;;;12.45;76.24;96074.31;4977334;28;20210;-86
2024/01/24 07:34:57;;;;;;;0.63;0.60;;;;;;;12.44;76.41;96095.16;4966564;28;20238;-86
2024/01/24 07:37:23;;;;;;;0.50;0.50;;;;;;;12.47;76.32;96087.06;4965500;28;20948;-86
2024/01/24 07:39:50;;;;;;;0.70;0.60;;;;;;;12.51;76.16;96092.69;4962409;28;20193;-85
2024/01/24 07:42:18;;;;;;;0.77;0.67;;;;;;;12.47;76.17;96104.34;4973501;28;20200;-85
2024/01/24 07:44:46;;;;;;;1.17;0.70;;;;;;;12.43;76.20;96089.19;4991088;28;20215;-85
2024/01/24 07:47:14;;;;;;;0.90;0.67;;;;;;;12.46;76.28;96088.03;4974999;28;20239;-85
2024/01/24 07:49:40;;;;;;;0.93;0.80;;;;;;;12.41;76.49;96096.28;4973358;28;20219;-86
2024/01/24 07:52:09;;;;;;;1.27;0.77;;;;;;;12.44;76.73;96097.72;4973808;28;20208;-84
2024/01/24 07:54:35;;;;;;;1.23;0.70;;;;;;;12.47;76.66;96078.50;4983042;28;20421;-85
2024/01/24 07:57:07;;;;;;;0.73;0.73;;;;;;;12.43;76.60;96091.75;4974900;28;20218;-84
2024/01/24 07:59:36;;;;;;;1.30;0.70;;;;;;;12.44;76.54;96072.72;4971590;28;20197;-85
2024/01/24 08:02:03;;;;;;;0.50;0.40;;;;;;;12.50;76.28;96067.81;4959420;28;20271;-87
2024/01/24 08:04:31;;;;;;;0.80;0.70;;;;;;;12.55;76.18;96079.22;4966858;28;20708;-86
2024/01/24 08:07:00;;;;;;;0.67;0.67;;;;;;;12.54;76.16;96067.28;4965352;28;20718;-86
2024/01/24 08:09:26;;;;;;;1.13;0.73;;;;;;;12.56;76.40;96096.31;4966242;28;20196;-82
2024/01/24 08:11:53;;;;;;;0.70;0.60;;;;;;;12.58;76.42;96086.63;4973265;28;20203;-84
2024/01/24 08:14:20;;;;;;;0.70;0.60;;;;;;;12.52;76.61;96089.09;4972593;28;20512;-85
2024/01/24 08:16:59;;;;;;;2.07;0.77;;;;;;;12.59;76.45;96067.56;4951167;28;20215;-84
2024/01/24 08:19:27;;;;;;;0.50;0.50;;;;;;;12.61;76.24;96065.59;4965039;28;20300;-85
2024/01/24 08:21:55;;;;;;;1.07;0.70;;;;;;;12.57;76.36;96054.00;4972019;28;20211;-84
2024/01/24 08:24:21;;;;;;;0.63;0.60;;;;;;;12.60;76.67;96052.84;4972485;28;20212;-84
2024/01/24 08:26:48;;;;;;;1.63;0.50;;;;;;;12.57;76.49;96048.03;4975434;28;20220;-83
2024/01/24 08:29:15;;;;;;;1.50;1.37;;;;;;;12.61;76.72;96069.97;4966201;28;20254;-82
2024/01/24 08:31:42;;;;;;;0.60;0.60;;;;;;;12.63;76.64;96076.56;4972388;28;20327;-82
2024/01/24 08:34:10;;;;;;;1.00;0.63;;;;;;;12.68;76.63;96069.09;4970974;28;20228;-83
2024/01/24 08:39:42;;;;;;;0.90;0.60;;;;;;;12.61;77.00;96101.75;4952510;28;20513;-84
2024/01/24 08:42:08;;;;;;;0.60;0.60;;;;;;;12.54;77.67;96098.28;4970546;28;20560;-84
2024/01/24 08:44:35;;;;;;;0.80;0.80;;;;;;;12.52;77.90;96115.72;4972480;28;20218;-83
2024/01/24 08:47:01;;;;;;;1.53;0.70;;;;;;;12.53;78.34;96129.44;4972997;28;20196;-83
2024/01/24 08:49:28;;;;;;;0.70;0.60;;;;;;;12.49;79.71;96167.75;4972163;28;20197;-84
2024/01/24 08:51:56;;;;;;;0.87;0.60;;;;;;;12.48;80.82;96194.56;4973769;28;20204;-83
2024/01/24 08:54:24;;;;;;;1.17;0.77;;;;;;;12.48;82.15;96217.00;4978841;28;20218;-84
2024/01/24 08:56:53;;;;;;;1.40;0.80;;;;;;;12.46;82.79;96217.16;4973107;28;20204;-83
2024/01/24 08:59:20;;;;;;;0.83;0.70;;;;;;;12.53;82.40;96222.44;4971797;28;20674;-84
2024/01/24 09:01:46;;;;;;;0.60;0.60;;;;;;;12.45;82.15;96195.69;4966142;28;20218;-82
2024/01/24 09:04:13;;;;;;;1.87;0.87;;;;;;;12.42;81.96;96200.41;4958630;28;20208;-84
2024/01/24 09:06:42;;;;;;;0.80;0.73;;;;;;;12.39;83.63;96237.69;4969797;28;20206;-84
2024/01/24 09:09:13;;;;;;;0.80;0.70;;;;;;;12.38;84.35;96224.97;4981523;28;20200;-83
2024/01/24 09:11:41;;;;;;;0.70;0.70;;;;;;;12.42;84.25;96216.69;4969907;28;20208;-83
2024/01/24 09:14:08;;;;;;;1.03;0.70;;;;;;;12.41;84.64;96215.09;4971474;28;20641;-85
2024/01/24 09:16:34;;;;;;;0.80;0.80;;;;;;;12.41;85.33;96235.75;4980391;28;20203;-83
2024/01/24 09:19:01;;;;;;;0.80;0.70;;;;;;;12.39;85.23;96221.41;4982732;28;20714;-84
2024/01/24 09:21:27;;;;;;;0.70;0.70;;;;;;;12.43;85.53;96241.56;4964161;28;20195;-83
2024/01/24 09:23:54;;;;;;;0.60;0.60;;;;;;;12.41;85.42;96227.19;4957729;28;20208;-83
2024/01/24 09:26:20;;;;;;;0.70;0.70;;;;;;;12.47;85.32;96254.94;4961013;28;20196;-83
2024/01/24 09:28:48;;;;;;;1.20;0.70;;;;;;;12.48;84.66;96227.34;4976879;28;20208;-83
2024/01/24 09:31:20;;;;;;;1.93;1.57;;;;;;;12.52;83.20;96197.56;4976322;28;20207;-82
2024/01/24 09:33:47;;;;;;;1.80;0.70;;;;;;;12.56;82.29;96160.09;4958569;28;20203;-84
2024/01/24 09:36:13;;;;;;;0.80;0.60;;;;;;;12.60;81.79;96133.75;4969444;28;20231;-84
2024/01/24 09:38:43;;;;;;;1.50;0.80;;;;;;;12.69;81.12;96106.06;4974855;28;20204;-82
2024/01/24 09:41:19;;;;;;;0.60;0.60;;;;;;;12.75;79.88;96064.00;4987814;28;20201;-84
2024/01/24 09:43:49;;;;;;;0.77;0.70;;;;;;;12.85;79.50;96061.16;4977970;28;20208;-83
2024/01/24 09:46:18;;;;;;;1.50;0.60;;;;;;;12.91;78.58;96057.84;4971568;28;20193;-83
2024/01/24 09:48:45;;;;;;;0.70;0.70;;;;;;;12.95;77.57;96021.13;4971517;28;20733;-83
2024/01/24 09:51:13;;;;;;;0.70;0.70;;;;;;;13.06;77.07;96012.13;4985535;28;20199;-84
2024/01/24 09:53:40;;;;;;;0.88;0.80;;;;;;;13.10;76.47;95975.34;4977946;28;20196;-86
2024/01/24 09:56:07;;;;;;;1.50;1.20;;;;;;;13.13;76.54;95975.00;4984300;28;20383;-85
2024/01/24 09:58:34;;;;;;;0.65;0.65;;;;;;;13.13;76.52;95990.50;4975913;28;20203;-85
2024/01/24 10:01:05;;;;;;;0.53;0.50;;;;;;;13.16;76.40;95976.47;4978711;28;20203;-85
2024/01/24 10:03:32;;;;;;;1.75;0.63;;;;;;;13.20;76.13;95995.00;4976148;28;20207;-86
2024/01/24 10:06:00;;;;;;;0.65;0.65;;;;;;;13.21;75.84;96010.34;4974382;28;20341;-85
2024/01/24 10:08:28;;;;;;;0.70;0.70;;;;;;;13.26;75.51;96005.44;4984977;28;20238;-85
2024/01/24 10:10:54;;;;;;;0.87;0.70;;;;;;;13.27;75.58;95998.47;4989075;28;20196;-82
2024/01/24 10:13:21;;;;;;;0.63;0.63;;;;;;;13.24;75.06;95980.72;4973890;28;20199;-85
2024/01/24 10:15:47;;;;;;;1.00;0.73;;;;;;;13.36;74.92;96020.63;4972576;28;20239;-85
2024/01/24 10:18:15;;;;;;;1.43;0.80;;;;;;;13.37;74.13;95978.25;4974897;28;20199;-85
2024/01/24 10:20:42;;;;;;;1.10;0.60;;;;;;;13.43;73.61;95944.72;4980499;28;20203;-86
2024/01/24 10:23:11;;;;;;;0.60;0.60;;;;;;;13.47;73.04;95958.84;4969128;28;20275;-84
2024/01/24 10:25:45;;;;;;;0.90;0.60;;;;;;;13.50;72.98;95924.06;4971470;28;20218;-86
2024/01/24 10:28:16;;;;;;;1.20;0.77;;;;;;;13.58;72.24;95907.63;4982481;28;20192;-84
2024/01/24 10:30:43;;;;;;;1.00;0.70;;;;;;;13.62;72.31;95901.09;4984578;28;20192;-85
2024/01/24 10:33:11;;;;;;;0.53;0.53;;;;;;;13.67;71.59;95911.66;4959179;28;20985;-84
2024/01/24 10:35:40;;;;;;;0.73;0.70;;;;;;;13.65;71.60;95891.16;4976772;28;20219;-83
2024/01/24 10:38:10;;;;;;;0.63;0.63;;;;;;;13.66;71.19;95882.38;4973226;28;20203;-81
2024/01/24 10:40:39;;;;;;;0.70;0.70;;;;;;;13.69;71.44;95868.28;4963204;28;20215;-84
2024/01/24 10:43:12;;;;;;;0.52;0.52;;;;;;;13.69;71.10;95883.81;4978290;28;20898;-85
2024/01/24 10:45:45;;;;;;;1.65;0.50;;;;;;;13.69;70.75;95845.00;4957111;28;20215;-81
2024/01/24 10:48:13;;;;;;;0.90;0.90;;;;;;;13.69;70.90;95876.03;4971350;28;20613;-82
2024/01/24 10:50:43;;;;;;;0.80;0.70;;;;;;;13.69;70.78;95871.66;4973583;28;20204;-83
2024/01/24 10:53:12;;;;;;;0.80;0.70;;;;;;;13.68;70.95;95859.72;4977252;28;20466;-84
2024/01/24 10:55:39;;;;;;;0.90;0.70;;;;;;;13.69;70.78;95857.94;4984570;28;20216;-83
2024/01/24 10:58:06;;;;;;;1.17;0.70;;;;;;;13.68;70.16;95843.41;4974062;28;20200;-84
2024/01/24 11:00:34;;;;;;;1.58;0.88;;;;;;;13.75;71.09;95875.31;4980710;28;20195;-82
2024/01/24 11:03:00;;;;;;;1.40;0.73;;;;;;;13.72;70.15;95827.31;4984317;28;20196;-84
2024/01/24 11:05:33;;;;;;;1.63;0.80;;;;;;;13.77;70.10;95819.78;4977282;28;20220;-83
2024/01/24 11:08:05;;;;;;;0.50;0.50;;;;;;;13.81;69.99;95840.91;4980307;28;20199;-82
2024/01/24 11:10:36;;;;;;;0.70;0.50;;;;;;;13.88;69.97;95809.88;4960760;28;20223;-84
2024/01/24 11:13:06;;;;;;;1.25;0.70;;;;;;;13.85;69.72;95802.50;4971873;28;20201;-83
2024/01/24 11:15:33;;;;;;;0.60;0.60;;;;;;;13.89;69.61;95794.16;4974640;28;20231;-84
2024/01/24 11:18:21;;;;;;;0.60;0.57;;;;;;;13.94;69.19;95786.63;4972475;28;20604;-84
2024/01/24 11:20:51;;;;;;;1.10;0.60;;;;;;;13.93;68.92;95753.16;4950699;28;20209;-83
2024/01/24 11:23:35;;;;;;;1.35;0.70;;;;;;;13.97;68.48;95765.53;4970733;28;20213;-84
2024/01/24 11:26:02;;;;;;;1.00;0.60;;;;;;;14.00;68.41;95725.50;4974405;28;20239;-84
2024/01/24 11:28:28;;;;;;;0.68;0.57;;;;;;;13.94;68.27;95750.38;4978041;28;20207;-83
2024/01/24 11:30:55;;;;;;;1.25;0.80;;;;;;;13.90;67.88;95725.84;4976171;28;20196;-83
2024/01/24 11:33:24;;;;;;;0.60;0.60;;;;;;;13.92;68.06;95715.31;4974229;28;20204;-84
2024/01/24 11:35:53;;;;;;;0.50;0.50;;;;;;;13.98;67.63;95707.59;4973656;28;20228;-84
2024/01/24 11:38:35;;;;;;;0.65;0.60;;;;;;;13.98;67.63;95710.16;4962582;28;20224;-83
2024/01/24 11:41:10;;;;;;;1.33;1.23;;;;;;;13.93;66.91;95671.13;4967483;28;20274;-84
2024/01/24 11:43:37;;;;;;;0.90;0.90;;;;;;;14.02;67.07;95666.56;4968730;28;20207;-83
2024/01/24 11:46:04;;;;;;;0.65;0.60;;;;;;;14.01;66.65;95663.19;4958575;28;20220;-83
2024/01/24 11:48:32;;;;;;;0.50;0.50;;;;;;;14.05;66.54;95646.25;4971195;28;20200;-83
2024/01/24 11:50:59;;;;;;;1.10;0.55;;;;;;;14.04;65.96;95647.28;4974359;28;20259;-84